Time;durP1;ratioP1;P1;durP2;ratioP2;P2;SDS_P1;SDS_P2;PMS_P1;PMS_P2;Temp;Humidity;BMP_temperature;BMP_pressure;BME280_temperature;BME280_humidity;BME280_pressure;Samples;Min_cycle;Max_cycle;Signal;HPM_P1;HPM_P2
2024/02/27 00:03:47;;;;;;;;;;;;;;;4.09;100.00;94617.63;10354546;28;1994;-65
2024/02/27 00:08:50;;;;;;;;;;;;;;;4.07;100.00;94617.88;10365322;28;1939;-66
2024/02/27 00:13:53;;;;;;;;;;;;;;;4.02;100.00;94625.88;10360930;28;2035;-68
2024/02/27 00:18:56;;;;;;;;;;;;;;;3.99;100.00;94647.63;10361072;28;1916;-66
2024/02/27 00:23:59;;;;;;;;;;;;;;;3.94;100.00;94632.44;10359128;28;1941;-69
2024/02/27 00:29:02;;;;;;;;;;;;;;;3.95;100.00;94628.75;10358925;28;2215;-66
2024/02/27 00:34:04;;;;;;;;;;;;;;;3.98;100.00;94616.78;10361991;28;2872;-66
2024/02/27 00:39:08;;;;;;;;;;;;;;;4.01;100.00;94618.94;10355779;28;2409;-64
2024/02/27 00:44:11;;;;;;;;;;;;;;;3.94;100.00;94619.16;10355549;28;2073;-67
2024/02/27 00:49:14;;;;;;;;;;;;;;;4.01;100.00;94626.94;10355570;28;2043;-66
2024/02/27 00:54:16;;;;;;;;;;;;;;;4.07;100.00;94647.13;10355760;28;2184;-69
2024/02/27 00:59:19;;;;;;;;;;;;;;;3.90;100.00;94638.56;10353053;28;2304;-65
2024/02/27 01:04:22;;;;;;;;;;;;;;;3.87;100.00;94633.75;10359023;28;2110;-71
2024/02/27 01:09:24;;;;;;;;;;;;;;;3.91;100.00;94625.00;10362678;28;1983;-65
2024/02/27 01:14:27;;;;;;;;;;;;;;;3.92;100.00;94641.75;10357039;28;2871;-67
2024/02/27 01:19:29;;;;;;;;;;;;;;;3.85;100.00;94635.88;10351582;28;2894;-65
2024/02/27 01:24:33;;;;;;;;;;;;;;;3.86;100.00;94634.81;10360603;28;2008;-65
2024/02/27 01:29:37;;;;;;;;;;;;;;;3.98;100.00;94636.22;10347560;28;2049;-71
2024/02/27 01:34:42;;;;;;;;;;;;;;;3.92;100.00;94625.81;10373280;28;1927;-66
2024/02/27 01:39:48;;;;;;;;;;;;;;;3.77;100.00;94629.22;10354031;28;1953;-72
2024/02/27 01:44:51;;;;;;;;;;;;;;;3.75;100.00;94626.00;10354460;28;2081;-65
2024/02/27 01:49:54;;;;;;;;;;;;;;;3.75;100.00;94620.66;10354544;28;1970;-68
2024/02/27 01:54:57;;;;;;;;;;;;;;;3.59;100.00;94622.47;10355313;28;2227;-66
2024/02/27 02:00:00;;;;;;;;;;;;;;;3.61;100.00;94636.28;10363572;28;2366;-64
2024/02/27 02:05:03;;;;;;;;;;;;;;;3.52;100.00;94637.84;10350913;28;2614;-65
2024/02/27 02:10:06;;;;;;;;;;;;;;;3.55;100.00;94653.25;10371954;28;2034;-66
2024/02/27 02:15:10;;;;;;;;;;;;;;;3.61;100.00;94656.75;10348576;28;2005;-69
2024/02/27 02:20:12;;;;;;;;;;;;;;;3.58;100.00;94651.97;10348500;28;2065;-65
2024/02/27 02:25:15;;;;;;;;;;;;;;;3.59;100.00;94657.00;10348245;28;2037;-66
2024/02/27 02:30:18;;;;;;;;;;;;;;;3.60;100.00;94666.59;10352637;28;1979;-66
2024/02/27 02:35:21;;;;;;;;;;;;;;;3.56;100.00;94664.69;10349911;28;2037;-66
2024/02/27 02:40:25;;;;;;;;;;;;;;;3.43;100.00;94645.47;10353031;28;2739;-66
2024/02/27 02:45:28;;;;;;;;;;;;;;;3.44;100.00;94651.63;10359378;28;1962;-67
2024/02/27 02:50:31;;;;;;;;;;;;;;;3.55;100.00;94663.88;10357862;28;2046;-65
2024/02/27 02:55:34;;;;;;;;;;;;;;;3.40;100.00;94661.16;10363328;28;2007;-64
2024/02/27 03:00:37;;;;;;;;;;;;;;;3.21;100.00;94674.81;10365327;28;1916;-65
2024/02/27 03:05:39;;;;;;;;;;;;;;;3.18;100.00;94680.66;10361514;28;2137;-65
2024/02/27 03:10:45;;;;;;;;;;;;;;;3.15;100.00;94685.66;10356951;28;2129;-64
2024/02/27 03:15:47;;;;;;;;;;;;;;;3.18;100.00;94696.59;10366620;28;2054;-66
2024/02/27 03:20:50;;;;;;;;;;;;;;;3.16;100.00;94688.06;10369985;28;2110;-69
2024/02/27 03:25:52;;;;;;;;;;;;;;;3.25;100.00;94685.75;10355290;28;3037;-65
2024/02/27 03:30:55;;;;;;;;;;;;;;;3.24;100.00;94708.84;10356082;28;1949;-65
2024/02/27 03:35:58;;;;;;;;;;;;;;;3.17;100.00;94704.78;10349698;28;1889;-64
2024/02/27 03:41:00;;;;;;;;;;;;;;;3.18;100.00;94699.25;10358520;28;2044;-65
2024/02/27 03:46:03;;;;;;;;;;;;;;;3.13;100.00;94699.19;10359251;28;2010;-70
2024/02/27 03:51:06;;;;;;;;;;;;;;;3.19;100.00;94698.19;10365580;28;2050;-67
2024/02/27 03:56:10;;;;;;;;;;;;;;;3.35;100.00;94716.88;10360957;28;2141;-66
2024/02/27 04:01:15;;;;;;;;;;;;;;;3.27;100.00;94730.63;10360430;28;2006;-67
2024/02/27 04:06:18;;;;;;;;;;;;;;;3.21;100.00;94717.31;10359013;28;2612;-66
2024/02/27 04:11:20;;;;;;;;;;;;;;;3.17;100.00;94718.84;10353256;28;2394;-64
2024/02/27 04:16:23;;;;;;;;;;;;;;;3.27;100.00;94735.94;10350867;28;1992;-69
2024/02/27 04:21:26;;;;;;;;;;;;;;;3.13;100.00;94720.44;10352368;28;2074;-67
2024/02/27 04:26:29;;;;;;;;;;;;;;;3.08;100.00;94725.69;10378857;28;1854;-66
2024/02/27 04:31:31;;;;;;;;;;;;;;;3.04;100.00;94745.81;10361280;28;2024;-64
2024/02/27 04:36:33;;;;;;;;;;;;;;;3.04;100.00;94737.06;10354703;28;2090;-66
2024/02/27 04:41:36;;;;;;;;;;;;;;;3.03;100.00;94736.25;10358312;28;2239;-65
2024/02/27 04:46:39;;;;;;;;;;;;;;;2.95;100.00;94739.38;10348353;28;2198;-66
2024/02/27 04:51:44;;;;;;;;;;;;;;;2.88;100.00;94741.44;10350755;28;3294;-64
2024/02/27 04:56:46;;;;;;;;;;;;;;;3.08;100.00;94746.94;10356908;28;1893;-65
2024/02/27 05:01:49;;;;;;;;;;;;;;;2.87;100.00;94763.72;10355083;28;2009;-69
2024/02/27 05:06:55;;;;;;;;;;;;;;;2.81;100.00;94757.56;10352761;28;2221;-66
2024/02/27 05:11:58;;;;;;;;;;;;;;;2.89;100.00;94766.94;10355798;28;1986;-65
2024/02/27 05:17:04;;;;;;;;;;;;;;;2.97;100.00;94771.78;10354935;28;2041;-64
2024/02/27 05:22:07;;;;;;;;;;;;;;;3.02;100.00;94776.34;10349426;28;2068;-65
2024/02/27 05:27:12;;;;;;;;;;;;;;;3.08;100.00;94797.38;10354755;28;2137;-65
2024/02/27 05:32:15;;;;;;;;;;;;;;;3.15;100.00;94797.97;10348076;28;2585;-65
2024/02/27 05:37:18;;;;;;;;;;;;;;;3.05;100.00;94797.88;10366654;28;2002;-67
2024/02/27 05:42:22;;;;;;;;;;;;;;;2.94;100.00;94791.69;10364689;28;2149;-65
2024/02/27 05:47:26;;;;;;;;;;;;;;;3.07;100.00;94798.44;10351667;28;2027;-65
2024/02/27 05:52:28;;;;;;;;;;;;;;;3.00;100.00;94805.81;10349067;28;2039;-64
2024/02/27 05:57:31;;;;;;;;;;;;;;;2.95;100.00;94821.69;10351804;28;2054;-68
2024/02/27 06:02:34;;;;;;;;;;;;;;;2.96;100.00;94824.06;10353069;28;2247;-66
2024/02/27 06:07:38;;;;;;;;;;;;;;;2.88;100.00;94834.34;10351620;28;2950;-65
2024/02/27 06:12:41;;;;;;;;;;;;;;;2.92;100.00;94832.78;10349123;28;2271;-66
2024/02/27 06:17:44;;;;;;;;;;;;;;;2.82;100.00;94824.72;10363265;28;2074;-64
2024/02/27 06:22:47;;;;;;;;;;;;;;;2.81;100.00;94839.03;10355103;28;2084;-66
2024/02/27 06:27:52;;;;;;;;;;;;;;;2.88;100.00;94860.88;10360942;28;2230;-65
2024/02/27 06:32:54;;;;;;;;;;;;;;;2.84;100.00;94859.75;10358088;28;2029;-67
2024/02/27 06:37:57;;;;;;;;;;;;;;;2.80;100.00;94874.56;10355445;28;1975;-67
2024/02/27 06:43:00;;;;;;;;;;;;;;;3.02;100.00;94878.03;10354793;28;1978;-66
2024/02/27 06:48:03;;;;;;;;;;;;;;;2.92;100.00;94888.53;10358380;28;2062;-64
2024/02/27 06:53:08;;;;;;;;;;;;;;;3.12;100.00;94893.28;10358550;28;2654;-65
2024/02/27 06:58:10;;;;;;;;;;;;;;;3.33;100.00;94900.44;10358076;28;2096;-66
2024/02/27 07:03:13;;;;;;;;;;;;;;;3.34;100.00;94907.34;10371594;28;2379;-65
2024/02/27 07:08:16;;;;;;;;;;;;;;;3.47;100.00;94906.16;10356697;28;2044;-66
2024/02/27 07:13:19;;;;;;;;;;;;;;;3.76;100.00;94915.50;10356999;28;1974;-66
2024/02/27 07:18:21;;;;;;;;;;;;;;;3.75;100.00;94908.56;10353127;28;2073;-75
2024/02/27 07:23:24;;;;;;;;;;;;;;;3.86;100.00;94895.34;10361688;28;2031;-71
2024/02/27 07:28:27;;;;;;;;;;;;;;;3.78;100.00;94902.75;10364485;28;2001;-74
2024/02/27 07:33:35;;;;;;;;;;;;;;;3.93;100.00;94893.28;10364346;28;2613;-74
2024/02/27 07:38:38;;;;;;;;;;;;;;;3.92;100.00;94891.69;10365470;28;2081;-67
2024/02/27 07:43:40;;;;;;;;;;;;;;;3.96;100.00;94906.09;10358502;28;2137;-65
2024/02/27 07:48:43;;;;;;;;;;;;;;;4.12;100.00;94907.00;10363201;28;1902;-73
2024/02/27 07:53:46;;;;;;;;;;;;;;;4.24;100.00;94916.41;10363651;28;2195;-66
2024/02/27 07:58:50;;;;;;;;;;;;;;;4.38;100.00;94915.97;10362875;28;1940;-66
2024/02/27 08:03:53;;;;;;;;;;;;;;;4.38;100.00;94922.09;10351888;28;2148;-68
2024/02/27 08:08:56;;;;;;;;;;;;;;;4.55;100.00;94922.75;10363643;28;2017;-67
2024/02/27 08:14:01;;;;;;;;;;;;;;;4.57;100.00;94920.63;10354127;28;2070;-66
2024/02/27 08:19:04;;;;;;;;;;;;;;;4.41;100.00;94931.44;10356506;28;2685;-72
2024/02/27 08:24:11;;;;;;;;;;;;;;;4.67;100.00;94930.56;10355797;28;2101;-65
2024/02/27 08:29:14;;;;;;;;;;;;;;;5.14;100.00;94919.88;10359422;28;2059;-66
2024/02/27 08:34:18;;;;;;;;;;;;;;;5.57;100.00;94920.56;10351787;28;2088;-65
2024/02/27 08:39:20;;;;;;;;;;;;;;;5.80;100.00;94921.16;10369417;28;2073;-66
2024/02/27 08:44:23;;;;;;;;;;;;;;;5.32;100.00;94937.28;10352250;28;1889;-65
2024/02/27 08:49:27;;;;;;;;;;;;;;;5.87;100.00;94946.50;10347371;28;2136;-65
2024/02/27 08:54:30;;;;;;;;;;;;;;;6.13;100.00;94946.56;10357519;28;2036;-66
2024/02/27 08:59:33;;;;;;;;;;;;;;;6.06;100.00;94938.03;10369639;28;2068;-66
2024/02/27 09:04:35;;;;;;;;;;;;;;;5.56;100.00;94940.28;10354164;28;2042;-65
2024/02/27 09:09:38;;;;;;;;;;;;;;;6.21;100.00;94943.38;10359897;28;1968;-65
2024/02/27 09:14:41;;;;;;;;;;;;;;;6.12;100.00;94929.78;10353313;28;2591;-67
2024/02/27 09:19:44;;;;;;;;;;;;;;;6.12;100.00;94923.63;10359214;28;2279;-66
2024/02/27 09:24:47;;;;;;;;;;;;;;;6.74;100.00;94942.03;10349703;28;2135;-65
2024/02/27 09:29:50;;;;;;;;;;;;;;;7.13;100.00;94944.09;10348588;28;2165;-66
2024/02/27 09:34:53;;;;;;;;;;;;;;;6.90;100.00;94955.34;10354161;28;2093;-66
2024/02/27 09:39:56;;;;;;;;;;;;;;;6.83;100.00;94950.28;10351565;28;2136;-65
2024/02/27 09:45:01;;;;;;;;;;;;;;;6.62;100.00;94940.72;10358040;28;2111;-65
2024/02/27 09:50:04;;;;;;;;;;;;;;;6.69;100.00;94944.72;10352000;28;2049;-66
2024/02/27 09:55:08;;;;;;;;;;;;;;;6.81;100.00;94962.28;10349597;28;2149;-64
2024/02/27 10:00:10;;;;;;;;;;;;;;;6.75;100.00;94959.66;10352697;28;2064;-65
2024/02/27 10:05:14;;;;;;;;;;;;;;;6.64;100.00;94962.59;10350398;28;2108;-66
2024/02/27 10:10:17;;;;;;;;;;;;;;;6.84;100.00;94961.78;10349796;28;2668;-65
2024/02/27 10:15:19;;;;;;;;;;;;;;;6.57;100.00;94972.75;10349966;28;2058;-65
2024/02/27 10:20:22;;;;;;;;;;;;;;;6.31;100.00;94983.44;10352349;28;1900;-66
2024/02/27 10:25:27;;;;;;;;;;;;;;;6.18;100.00;94982.06;10353363;28;2066;-68
2024/02/27 10:30:29;;;;;;;;;;;;;;;6.48;100.00;94978.59;10352804;28;2307;-66
2024/02/27 10:35:33;;;;;;;;;;;;;;;6.49;100.00;94982.91;10351900;28;2170;-65
2024/02/27 10:40:36;;;;;;;;;;;;;;;6.44;100.00;94980.22;10347771;28;1988;-66
2024/02/27 10:45:39;;;;;;;;;;;;;;;6.41;100.00;94991.44;10352859;28;2153;-66
2024/02/27 10:50:42;;;;;;;;;;;;;;;6.09;100.00;94988.97;10336191;28;1990;-66
2024/02/27 10:55:45;;;;;;;;;;;;;;;6.34;100.00;94995.44;10347917;28;2007;-65
2024/02/27 11:00:48;;;;;;;;;;;;;;;6.43;100.00;94986.63;10357528;28;2618;-66
2024/02/27 11:05:51;;;;;;;;;;;;;;;6.48;100.00;94996.50;10355112;28;2060;-66
2024/02/27 11:10:54;;;;;;;;;;;;;;;6.72;100.00;94986.88;10362383;28;1893;-65
2024/02/27 11:15:57;;;;;;;;;;;;;;;6.80;100.00;94985.53;10363128;28;2030;-65
2024/02/27 11:21:01;;;;;;;;;;;;;;;7.24;100.00;94984.94;10356056;28;2372;-65
2024/02/27 11:26:03;;;;;;;;;;;;;;;7.18;100.00;94986.00;10354073;28;2125;-64
2024/02/27 11:31:06;;;;;;;;;;;;;;;7.63;100.00;94979.72;10352687;28;2074;-67
2024/02/27 11:36:10;;;;;;;;;;;;;;;8.23;100.00;94972.44;10353275;28;2045;-65
2024/02/27 11:41:13;;;;;;;;;;;;;;;8.04;100.00;94974.97;10360399;28;2290;-65
2024/02/27 11:46:15;;;;;;;;;;;;;;;7.90;100.00;94984.69;10362279;28;2960;-65
2024/02/27 11:51:19;;;;;;;;;;;;;;;8.01;100.00;94980.88;10351811;28;2086;-65
2024/02/27 11:56:22;;;;;;;;;;;;;;;8.19;100.00;94979.44;10356773;28;2089;-66
2024/02/27 12:01:25;;;;;;;;;;;;;;;8.29;100.00;94983.94;10354102;28;2469;-65
2024/02/27 12:06:28;;;;;;;;;;;;;;;8.54;100.00;94973.06;10372883;28;2098;-67
2024/02/27 12:11:30;;;;;;;;;;;;;;;8.67;100.00;94982.34;10354527;28;2125;-66
2024/02/27 12:16:33;;;;;;;;;;;;;;;8.61;100.00;94965.50;10354611;28;2287;-66
2024/02/27 12:21:36;;;;;;;;;;;;;;;8.38;100.00;94975.03;10352386;28;1990;-67
2024/02/27 12:26:39;;;;;;;;;;;;;;;8.23;100.00;94974.34;10357215;28;1909;-66
2024/02/27 12:31:42;;;;;;;;;;;;;;;8.47;100.00;94972.59;10353074;28;2606;-67
2024/02/27 12:36:45;;;;;;;;;;;;;;;8.33;100.00;94976.91;10353497;28;1947;-66
2024/02/27 12:41:48;;;;;;;;;;;;;;;8.79;100.00;94971.25;10354983;28;2083;-65
2024/02/27 12:46:50;;;;;;;;;;;;;;;8.71;100.00;94969.16;10354600;28;2033;-66
2024/02/27 12:51:53;;;;;;;;;;;;;;;8.60;100.00;94968.47;10351809;28;2082;-72
2024/02/27 12:56:55;;;;;;;;;;;;;;;8.82;100.00;94974.16;10354550;28;2061;-67
2024/02/27 13:01:58;;;;;;;;;;;;;;;8.35;100.00;94969.44;10362326;28;1971;-69
2024/02/27 13:07:00;;;;;;;;;;;;;;;8.52;100.00;94958.34;10370920;28;2021;-65
2024/02/27 13:12:03;;;;;;;;;;;;;;;8.13;100.00;94959.13;10349908;28;2058;-66
2024/02/27 13:17:05;;;;;;;;;;;;;;;8.28;100.00;94948.31;10359143;28;2043;-71
2024/02/27 13:22:08;;;;;;;;;;;;;;;8.25;100.00;94958.78;10346838;28;2144;-66
2024/02/27 13:27:11;;;;;;;;;;;;;;;8.42;100.00;94953.88;10355250;28;2606;-66
2024/02/27 13:32:13;;;;;;;;;;;;;;;8.08;100.00;94959.19;10354588;28;2170;-70
2024/02/27 13:37:16;;;;;;;;;;;;;;;7.95;100.00;94955.25;10360538;28;2208;-71
2024/02/27 13:42:21;;;;;;;;;;;;;;;8.35;100.00;94948.00;10356196;28;2011;-68
2024/02/27 13:47:24;;;;;;;;;;;;;;;7.92;100.00;94955.78;10367139;28;1938;-67
2024/02/27 13:52:27;;;;;;;;;;;;;;;7.84;100.00;94959.84;10356295;28;2081;-68
2024/02/27 13:57:32;;;;;;;;;;;;;;;8.18;100.00;94960.97;10357952;28;2135;-66
2024/02/27 14:02:35;;;;;;;;;;;;;;;8.18;100.00;94963.66;10351707;28;2431;-65
2024/02/27 14:07:38;;;;;;;;;;;;;;;8.00;100.00;94968.56;10354884;28;2124;-66
2024/02/27 14:12:42;;;;;;;;;;;;;;;8.13;100.00;94965.28;10363833;28;2114;-67
2024/02/27 14:17:45;;;;;;;;;;;;;;;8.42;100.00;94969.94;10353203;28;2436;-67
2024/02/27 14:22:48;;;;;;;;;;;;;;;8.23;100.00;94977.81;10355259;28;2186;-71
2024/02/27 14:27:51;;;;;;;;;;;;;;;8.39;100.00;94981.19;10344765;28;2097;-77
2024/02/27 14:32:54;;;;;;;;;;;;;;;8.10;100.00;94979.22;10353563;28;2158;-70
2024/02/27 14:37:57;;;;;;;;;;;;;;;8.29;100.00;94979.38;10362878;28;2137;-66
2024/02/27 14:43:02;;;;;;;;;;;;;;;8.29;100.00;94978.56;10354242;28;2352;-72
2024/02/27 14:48:05;;;;;;;;;;;;;;;8.28;100.00;94980.44;10356908;28;2070;-73
2024/02/27 14:53:08;;;;;;;;;;;;;;;8.08;100.00;94978.72;10355290;28;2040;-65
2024/02/27 14:58:13;;;;;;;;;;;;;;;8.06;100.00;94988.88;10359736;28;1956;-70
2024/02/27 15:03:16;;;;;;;;;;;;;;;8.01;100.00;94991.56;10355869;28;2051;-66
2024/02/27 15:08:19;;;;;;;;;;;;;;;7.93;100.00;95000.19;10354005;28;2174;-66
2024/02/27 15:13:21;;;;;;;;;;;;;;;7.92;100.00;94992.44;10354707;28;2162;-67
2024/02/27 15:18:25;;;;;;;;;;;;;;;7.62;100.00;95004.88;10359673;28;2022;-68
2024/02/27 15:23:30;;;;;;;;;;;;;;;7.54;100.00;95005.44;10357142;28;2110;-66
2024/02/27 15:28:34;;;;;;;;;;;;;;;7.77;100.00;95004.03;10357175;28;2153;-69
2024/02/27 15:33:36;;;;;;;;;;;;;;;7.73;100.00;95011.78;10353398;28;2379;-69
2024/02/27 15:38:42;;;;;;;;;;;;;;;7.63;100.00;95013.69;10369356;28;1977;-67
2024/02/27 15:43:47;;;;;;;;;;;;;;;7.51;100.00;95022.84;10358211;28;1995;-69
2024/02/27 15:48:49;;;;;;;;;;;;;;;7.33;100.00;95031.44;10352848;28;2023;-68
2024/02/27 15:53:52;;;;;;;;;;;;;;;7.23;100.00;95034.91;10357263;28;2045;-66
2024/02/27 15:58:56;;;;;;;;;;;;;;;7.23;100.00;95036.78;10358007;28;1981;-66
2024/02/27 16:03:59;;;;;;;;;;;;;;;7.13;100.00;95047.53;10362142;28;2037;-65
2024/02/27 16:09:02;;;;;;;;;;;;;;;7.05;100.00;95049.63;10356961;28;1917;-67
2024/02/27 16:14:05;;;;;;;;;;;;;;;6.96;100.00;95048.59;10356715;28;2097;-66
2024/02/27 16:19:07;;;;;;;;;;;;;;;6.88;100.00;95048.34;10351231;28;1973;-65
2024/02/27 16:24:10;;;;;;;;;;;;;;;6.92;100.00;95060.88;10350489;28;2141;-68
2024/02/27 16:29:15;;;;;;;;;;;;;;;6.85;100.00;95055.00;10368639;28;2529;-67
2024/02/27 16:34:18;;;;;;;;;;;;;;;6.74;100.00;95069.41;10358269;28;1918;-66
2024/02/27 16:39:21;;;;;;;;;;;;;;;6.63;100.00;95073.97;10361142;28;2000;-67
2024/02/27 16:44:23;;;;;;;;;;;;;;;6.53;100.00;95083.81;10350178;28;1889;-67
2024/02/27 16:49:26;;;;;;;;;;;;;;;6.44;100.00;95095.03;10351434;28;2057;-66
2024/02/27 16:54:29;;;;;;;;;;;;;;;6.36;100.00;95094.72;10355577;28;1920;-66
2024/02/27 16:59:32;;;;;;;;;;;;;;;6.25;100.00;95101.91;10354002;28;2115;-66
2024/02/27 17:04:35;;;;;;;;;;;;;;;6.39;100.00;95099.53;10349915;28;2069;-66
2024/02/27 17:09:39;;;;;;;;;;;;;;;6.27;100.00;95102.44;10350642;28;2195;-68
2024/02/27 17:14:42;;;;;;;;;;;;;;;6.18;100.00;95115.50;10348737;28;2245;-71
2024/02/27 17:19:45;;;;;;;;;;;;;;;6.25;100.00;95120.59;10357418;28;2013;-67
2024/02/27 17:24:48;;;;;;;;;;;;;;;6.29;100.00;95120.88;10352975;28;2510;-68
2024/02/27 17:29:51;;;;;;;;;;;;;;;6.22;100.00;95139.78;10366272;28;2001;-74
2024/02/27 17:34:54;;;;;;;;;;;;;;;6.14;100.00;95141.09;10355669;28;2561;-70
2024/02/27 17:39:56;;;;;;;;;;;;;;;6.02;100.00;95153.84;10353053;28;1956;-68
2024/02/27 17:44:59;;;;;;;;;;;;;;;5.96;100.00;95161.03;10349349;28;1920;-69
2024/02/27 17:50:02;;;;;;;;;;;;;;;5.93;100.00;95172.22;10355449;28;2224;-68
2024/02/27 17:55:05;;;;;;;;;;;;;;;5.87;100.00;95185.75;10354916;28;2128;-67
2024/02/27 18:00:08;;;;;;;;;;;;;;;5.82;100.00;95183.88;10354986;28;2451;-67
2024/02/27 18:05:11;;;;;;;;;;;;;;;5.77;100.00;95189.16;10359853;28;1920;-67
2024/02/27 18:10:17;;;;;;;;;;;;;;;5.75;100.00;95201.97;10364810;28;2082;-66
2024/02/27 18:15:20;;;;;;;;;;;;;;;5.78;100.00;95196.09;10356386;28;2525;-68
2024/02/27 18:20:24;;;;;;;;;;;;;;;5.78;100.00;95185.44;10350093;28;2128;-68
2024/02/27 18:25:26;;;;;;;;;;;;;;;5.79;100.00;95184.41;10339362;28;2139;-67
2024/02/27 18:30:30;;;;;;;;;;;;;;;5.76;100.00;95186.75;10351138;28;2204;-70
2024/02/27 18:35:34;;;;;;;;;;;;;;;5.70;100.00;95183.25;10349577;28;2120;-68
2024/02/27 18:40:37;;;;;;;;;;;;;;;5.64;100.00;95200.28;10362380;28;2122;-68
2024/02/27 18:45:40;;;;;;;;;;;;;;;5.60;100.00;95209.88;10354084;28;1665;-66
2024/02/27 18:50:43;;;;;;;;;;;;;;;5.50;100.00;95207.13;10360621;28;1875;-67
2024/02/27 18:55:47;;;;;;;;;;;;;;;5.42;100.00;95219.84;10359304;28;1899;-69
2024/02/27 19:00:49;;;;;;;;;;;;;;;5.36;100.00;95225.41;10357892;28;2379;-68
2024/02/27 19:05:52;;;;;;;;;;;;;;;5.30;100.00;95221.88;10363668;28;1866;-69
2024/02/27 19:10:57;;;;;;;;;;;;;;;5.28;100.00;95237.34;10380313;28;1665;-66
2024/02/27 19:16:00;;;;;;;;;;;;;;;5.30;100.00;95245.06;10354052;28;1918;-65
2024/02/27 19:21:03;;;;;;;;;;;;;;;5.33;100.00;95245.34;10354362;28;1636;-66
2024/02/27 19:26:05;;;;;;;;;;;;;;;5.33;100.00;95255.22;10368578;28;1882;-67
2024/02/27 19:31:09;;;;;;;;;;;;;;;5.29;100.00;95249.59;10365421;28;2061;-66
2024/02/27 19:36:11;;;;;;;;;;;;;;;5.31;100.00;95260.00;10370634;28;2053;-66
2024/02/27 19:41:15;;;;;;;;;;;;;;;5.39;100.00;95257.66;10359844;28;1986;-67
2024/02/27 19:46:18;;;;;;;;;;;;;;;5.47;100.00;95258.25;10358786;28;2308;-69
2024/02/27 19:51:21;;;;;;;;;;;;;;;5.56;100.00;95262.06;10367952;28;2252;-73
2024/02/27 19:56:24;;;;;;;;;;;;;;;5.69;100.00;95272.31;10357825;28;2015;-67
2024/02/27 20:01:27;;;;;;;;;;;;;;;5.80;100.00;95273.22;10353690;28;2070;-71
2024/02/27 20:06:30;;;;;;;;;;;;;;;5.91;100.00;95275.69;10358472;28;2054;-74
2024/02/27 20:11:33;;;;;;;;;;;;;;;6.04;100.00;95270.97;10359226;28;2065;-66
2024/02/27 20:16:35;;;;;;;;;;;;;;;6.10;100.00;95277.97;10358023;28;2098;-74
2024/02/27 20:21:40;;;;;;;;;;;;;;;6.10;100.00;95280.63;10358592;28;2093;-67
2024/02/27 20:26:43;;;;;;;;;;;;;;;6.13;100.00;95288.13;10344909;28;1981;-67
2024/02/27 20:31:47;;;;;;;;;;;;;;;6.08;100.00;95288.09;10353767;28;2156;-67
2024/02/27 20:36:50;;;;;;;;;;;;;;;6.07;100.00;95284.63;10355018;28;2094;-66
2024/02/27 20:41:55;;;;;;;;;;;;;;;6.02;100.00;95297.94;10352195;28;2464;-68
2024/02/27 20:46:57;;;;;;;;;;;;;;;6.03;100.00;95304.06;10357183;28;2389;-65
2024/02/27 20:52:01;;;;;;;;;;;;;;;6.02;100.00;95302.47;10353134;28;2187;-65
2024/02/27 20:57:04;;;;;;;;;;;;;;;6.06;100.00;95311.56;10361417;28;2001;-66
2024/02/27 21:02:07;;;;;;;;;;;;;;;6.05;100.00;95317.97;10359429;28;2316;-69
2024/02/27 21:07:09;;;;;;;;;;;;;;;6.10;100.00;95320.66;10349987;28;2036;-67
2024/02/27 21:12:12;;;;;;;;;;;;;;;6.13;100.00;95330.84;10349409;28;2070;-70
2024/02/27 21:17:15;;;;;;;;;;;;;;;6.17;100.00;95342.59;10354702;28;1994;-66
2024/02/27 21:22:18;;;;;;;;;;;;;;;6.18;100.00;95333.53;10353169;28;1994;-66
2024/02/27 21:27:22;;;;;;;;;;;;;;;6.14;100.00;95333.25;10353091;28;2109;-67
2024/02/27 21:32:25;;;;;;;;;;;;;;;6.04;100.00;95332.34;10351955;28;2423;-67
2024/02/27 21:37:28;;;;;;;;;;;;;;;5.94;100.00;95330.41;10357463;28;1983;-67
2024/02/27 21:42:31;;;;;;;;;;;;;;;5.91;100.00;95349.59;10353717;28;2069;-66
2024/02/27 21:47:34;;;;;;;;;;;;;;;5.96;100.00;95346.97;10351968;28;1995;-66
2024/02/27 21:52:36;;;;;;;;;;;;;;;6.02;100.00;95340.63;10351664;28;2006;-66
2024/02/27 21:57:39;;;;;;;;;;;;;;;6.06;100.00;95343.59;10354734;28;2086;-66
2024/02/27 22:02:41;;;;;;;;;;;;;;;6.02;100.00;95358.50;10357458;28;2157;-68
2024/02/27 22:07:47;;;;;;;;;;;;;;;6.02;100.00;95355.81;10351552;28;2079;-70
2024/02/27 22:12:50;;;;;;;;;;;;;;;5.91;100.00;95365.59;10346857;28;2306;-69
2024/02/27 22:17:52;;;;;;;;;;;;;;;5.95;100.00;95359.50;10375234;28;2070;-66
2024/02/27 22:22:55;;;;;;;;;;;;;;;5.97;100.00;95365.38;10343895;28;1879;-65
2024/02/27 22:28:00;;;;;;;;;;;;;;;5.82;100.00;95367.91;10347787;28;1982;-67
2024/02/27 22:33:05;;;;;;;;;;;;;;;5.78;100.00;95380.13;10351420;28;1947;-66
2024/02/27 22:38:08;;;;;;;;;;;;;;;5.82;100.00;95383.09;10350573;28;2017;-67
2024/02/27 22:43:12;;;;;;;;;;;;;;;5.84;100.00;95394.31;10347352;28;1986;-66
2024/02/27 22:48:15;;;;;;;;;;;;;;;5.88;100.00;95393.56;10348248;28;2101;-66
2024/02/27 22:53:18;;;;;;;;;;;;;;;5.80;100.00;95398.56;10353190;28;2054;-66
2024/02/27 22:58:21;;;;;;;;;;;;;;;5.84;100.00;95403.13;10351062;28;2037;-67
2024/02/27 23:03:23;;;;;;;;;;;;;;;5.78;100.00;95404.13;10358668;28;1984;-67
2024/02/27 23:08:26;;;;;;;;;;;;;;;5.75;100.00;95409.97;10358689;28;2634;-66
2024/02/27 23:13:29;;;;;;;;;;;;;;;5.72;100.00;95417.66;10353455;28;2082;-66
2024/02/27 23:18:33;;;;;;;;;;;;;;;5.70;100.00;95423.25;10355834;28;2110;-66
2024/02/27 23:23:36;;;;;;;;;;;;;;;5.73;100.00;95430.78;10357482;28;1998;-66
2024/02/27 23:28:38;;;;;;;;;;;;;;;5.69;100.00;95427.00;10357829;28;2149;-66
2024/02/27 23:33:47;;;;;;;;;;;;;;;5.65;100.00;95429.34;10359067;28;2238;-71
2024/02/27 23:38:50;;;;;;;;;;;;;;;5.74;100.00;95428.91;10357882;28;2136;-67
2024/02/27 23:43:53;;;;;;;;;;;;;;;5.66;100.00;95430.13;10355879;28;2179;-67
2024/02/27 23:48:57;;;;;;;;;;;;;;;5.62;100.00;95445.84;10354385;28;2053;-69
2024/02/27 23:54:00;;;;;;;;;;;;;;;5.62;100.00;95450.38;10353384;28;2080;-68
2024/02/27 23:59:03;;;;;;;;;;;;;;;5.61;100.00;95446.09;10373591;28;2209;-68
